createdAt,value
2022-12-01T00:00:01.281Z,1003.63
2022-12-01T00:01:03.918Z,1003.68
2022-12-01T00:02:07.056Z,1003.64
2022-12-01T00:03:10.336Z,1003.62
2022-12-01T00:04:12.983Z,1003.63
2022-12-01T00:05:15.587Z,1003.59
2022-12-01T00:06:18.297Z,1003.61
2022-12-01T00:07:21.115Z,1003.62
2022-12-01T00:08:23.780Z,1003.61
2022-12-01T00:09:26.467Z,1003.65
2022-12-01T00:10:29.131Z,1003.64
2022-12-01T00:11:31.766Z,1003.59
2022-12-01T00:12:34.533Z,1003.57
2022-12-01T00:13:37.240Z,1003.54
2022-12-01T00:14:39.895Z,1003.61
2022-12-01T00:15:42.493Z,1003.62
2022-12-01T00:16:45.565Z,1003.6
2022-12-01T00:17:48.208Z,1003.64
2022-12-01T00:18:50.911Z,1003.58
2022-12-01T00:19:53.547Z,1003.57
2022-12-01T00:20:56.287Z,1003.59
2022-12-01T00:21:58.909Z,1003.51
2022-12-01T00:23:01.558Z,1003.55
2022-12-01T00:24:05.201Z,1003.55
2022-12-01T00:25:07.845Z,1003.54
2022-12-01T00:26:10.616Z,1003.52
2022-12-01T00:27:13.219Z,1003.56
2022-12-01T00:28:16.010Z,1003.55
2022-12-01T00:29:18.691Z,1003.51
2022-12-01T00:30:21.326Z,1003.54
2022-12-01T00:31:24.397Z,1003.54
2022-12-01T00:32:26.979Z,1003.43
2022-12-01T00:33:29.671Z,1003.48
2022-12-01T00:34:32.340Z,1003.46
2022-12-01T00:35:34.987Z,1003.46
2022-12-01T00:36:37.581Z,1003.47
2022-12-01T00:37:40.244Z,1003.5
2022-12-01T00:38:42.872Z,1003.5
2022-12-01T00:39:46.230Z,1003.42
2022-12-01T00:40:48.948Z,1003.52
2022-12-01T00:41:51.617Z,1003.52
2022-12-01T00:42:54.214Z,1003.49
2022-12-01T00:43:56.944Z,1003.53
2022-12-01T00:44:59.601Z,1003.55
2022-12-01T00:46:02.721Z,1003.55
2022-12-01T00:47:05.355Z,1003.6
2022-12-01T00:48:07.964Z,1003.54
2022-12-01T00:49:10.864Z,1003.52
2022-12-01T00:50:13.522Z,1003.57
2022-12-01T00:51:16.162Z,1003.55
2022-12-01T00:52:18.799Z,1003.55
2022-12-01T00:53:21.426Z,1003.55
2022-12-01T00:54:24.122Z,1003.6
2022-12-01T00:55:26.780Z,1003.59
2022-12-01T00:56:29.425Z,1003.59
2022-12-01T00:57:32.103Z,1003.62
2022-12-01T00:58:34.719Z,1003.61
2022-12-01T00:59:37.424Z,1003.66
2022-12-01T01:00:40.054Z,1003.64
2022-12-01T01:01:43.164Z,1003.67
2022-12-01T01:02:46.043Z,1003.65
2022-12-01T01:03:48.711Z,1003.65
2022-12-01T01:04:51.349Z,1003.65
2022-12-01T01:05:54.058Z,1003.66
2022-12-01T01:06:56.724Z,1003.65
2022-12-01T01:07:59.597Z,1003.7
2022-12-01T01:09:02.233Z,1003.73
2022-12-01T01:10:04.854Z,1003.68
2022-12-01T01:11:07.451Z,1003.72
2022-12-01T01:12:10.150Z,1003.66
2022-12-01T01:13:12.725Z,1003.71
2022-12-01T01:14:15.356Z,1003.67
2022-12-01T01:15:17.978Z,1003.71
2022-12-01T01:16:20.941Z,1003.69
2022-12-01T01:17:23.779Z,1003.7
2022-12-01T01:18:26.391Z,1003.69
2022-12-01T01:19:29.009Z,1003.7
2022-12-01T01:20:31.606Z,1003.7
2022-12-01T01:21:34.322Z,1003.73
2022-12-01T01:22:36.930Z,1003.7
2022-12-01T01:23:39.543Z,1003.71
2022-12-01T01:24:42.175Z,1003.77
2022-12-01T01:25:44.810Z,1003.75
2022-12-01T01:26:47.497Z,1003.72
2022-12-01T01:27:50.113Z,1003.77
2022-12-01T01:28:52.739Z,1003.75
2022-12-01T01:29:55.460Z,1003.77
2022-12-01T01:30:58.301Z,1003.75
2022-12-01T01:32:01.023Z,1003.75
2022-12-01T01:33:03.626Z,1003.73
2022-12-01T01:34:06.241Z,1003.78
2022-12-01T01:35:08.897Z,1003.79
2022-12-01T01:36:13.008Z,1003.73
2022-12-01T01:37:15.590Z,1003.77
2022-12-01T01:38:18.442Z,1003.79
2022-12-01T01:39:21.022Z,1003.79
2022-12-01T01:40:23.675Z,1003.75
2022-12-01T01:41:26.295Z,1003.83
2022-12-01T01:42:28.892Z,1003.8
2022-12-01T01:43:31.756Z,1003.8
2022-12-01T01:44:35.864Z,1003.75
2022-12-01T01:45:38.510Z,1003.8
2022-12-01T01:46:41.448Z,1003.85
2022-12-01T01:47:44.638Z,1003.78
2022-12-01T01:48:47.257Z,1003.81
2022-12-01T01:49:51.204Z,1003.77
2022-12-01T01:50:55.327Z,1003.8
2022-12-01T01:51:57.847Z,1003.74
2022-12-01T01:53:00.430Z,1003.75
2022-12-01T01:54:03.084Z,1003.78
2022-12-01T01:55:05.758Z,1003.78
2022-12-01T01:56:08.393Z,1003.78
2022-12-01T01:57:10.993Z,1003.73
2022-12-01T01:58:13.627Z,1003.76
2022-12-01T01:59:16.257Z,1003.77
2022-12-01T02:00:18.927Z,1003.89
2022-12-01T02:01:22.092Z,1003.77
2022-12-01T02:02:25.003Z,1003.83
2022-12-01T02:03:27.660Z,1003.83
2022-12-01T02:04:31.283Z,1003.87
2022-12-01T02:05:33.932Z,1003.87
2022-12-01T02:06:36.535Z,1003.86
2022-12-01T02:07:39.924Z,1003.82
2022-12-01T02:08:43.148Z,1003.86
2022-12-01T02:09:46.863Z,1003.81
2022-12-01T02:10:49.511Z,1003.81
2022-12-01T02:11:52.100Z,1003.83
2022-12-01T02:12:54.705Z,1003.81
2022-12-01T02:13:57.281Z,1003.83
2022-12-01T02:14:59.863Z,1003.78
2022-12-01T02:16:02.458Z,1003.86
2022-12-01T02:17:05.349Z,1003.86
2022-12-01T02:18:08.028Z,1003.78
2022-12-01T02:19:10.939Z,1003.81
2022-12-01T02:20:13.760Z,1003.83
2022-12-01T02:21:16.597Z,1003.74
2022-12-01T02:22:19.204Z,1003.74
2022-12-01T02:23:21.819Z,1003.79
2022-12-01T02:24:24.512Z,1003.83
2022-12-01T02:25:27.115Z,1003.77
2022-12-01T02:26:29.741Z,1003.81
2022-12-01T02:27:32.383Z,1003.78
2022-12-01T02:28:35.015Z,1003.79
2022-12-01T02:29:37.614Z,1003.78
2022-12-01T02:30:40.610Z,1003.8
2022-12-01T02:31:43.531Z,1003.79
2022-12-01T02:32:46.138Z,1003.78
2022-12-01T02:33:48.781Z,1003.73
2022-12-01T02:34:51.688Z,1003.77
2022-12-01T02:35:54.252Z,1003.78
2022-12-01T02:36:56.920Z,1003.75
2022-12-01T02:37:59.587Z,1003.78
2022-12-01T02:39:02.199Z,1003.8
2022-12-01T02:40:04.880Z,1003.79
2022-12-01T02:41:07.539Z,1003.77
2022-12-01T02:42:13.683Z,1003.86
2022-12-01T02:43:16.127Z,1003.85
2022-12-01T02:44:18.738Z,1003.8
2022-12-01T02:45:21.356Z,1003.86
2022-12-01T02:46:24.479Z,1003.83
2022-12-01T02:47:27.105Z,1003.8
2022-12-01T02:48:29.787Z,1003.81
2022-12-01T02:49:32.776Z,1003.82
2022-12-01T02:50:35.560Z,1003.82
2022-12-01T02:51:38.223Z,1003.82
2022-12-01T02:52:40.863Z,1003.85
2022-12-01T02:53:43.548Z,1003.86
2022-12-01T02:54:46.182Z,1003.84
2022-12-01T02:55:50.300Z,1003.8
2022-12-01T02:56:52.777Z,1003.83
2022-12-01T02:57:55.374Z,1003.76
2022-12-01T02:58:58.020Z,1003.8
2022-12-01T03:00:00.654Z,1003.82
2022-12-01T03:01:03.484Z,1003.83
2022-12-01T03:02:06.776Z,1003.75
2022-12-01T03:03:09.417Z,1003.81
2022-12-01T03:04:12.026Z,1003.8
2022-12-01T03:05:14.685Z,1003.83
2022-12-01T03:06:17.329Z,1003.8
2022-12-01T03:07:20.265Z,1003.77
2022-12-01T03:08:22.852Z,1003.75
2022-12-01T03:09:25.474Z,1003.75
2022-12-01T03:10:28.044Z,1003.79
2022-12-01T03:11:30.697Z,1003.76
2022-12-01T03:12:33.371Z,1003.74
2022-12-01T03:13:36.002Z,1003.75
2022-12-01T03:14:38.622Z,1003.75
2022-12-01T03:15:41.495Z,1003.79
2022-12-01T03:16:44.306Z,1003.67
2022-12-01T03:17:46.908Z,1003.71
2022-12-01T03:18:49.585Z,1003.71
2022-12-01T03:19:52.229Z,1003.64
2022-12-01T03:20:55.161Z,1003.7
2022-12-01T03:21:57.756Z,1003.63
2022-12-01T03:23:00.372Z,1003.61
2022-12-01T03:24:03.001Z,1003.58
2022-12-01T03:25:05.591Z,1003.6
2022-12-01T03:26:08.206Z,1003.64
2022-12-01T03:27:10.878Z,1003.54
2022-12-01T03:28:23.233Z,1003.51
2022-12-01T03:29:26.410Z,1003.51
2022-12-01T03:30:28.889Z,1003.54
2022-12-01T03:31:32.085Z,1003.51
2022-12-01T03:32:34.754Z,1003.54
2022-12-01T03:33:37.415Z,1003.5
2022-12-01T03:34:40.023Z,1003.51
2022-12-01T03:35:42.616Z,1003.58
2022-12-01T03:36:45.570Z,1003.54
2022-12-01T03:37:48.138Z,1003.57
2022-12-01T03:38:50.750Z,1003.56
2022-12-01T03:40:02.005Z,1003.52
2022-12-01T03:41:04.333Z,1003.57
2022-12-01T03:42:06.995Z,1003.63
2022-12-01T03:43:09.632Z,1003.67
2022-12-01T03:44:12.250Z,1003.64
2022-12-01T03:45:14.896Z,1003.66
2022-12-01T03:46:17.770Z,1003.65
2022-12-01T03:47:20.407Z,1003.57
2022-12-01T03:48:23.157Z,1003.58
2022-12-01T03:49:25.767Z,1003.58
2022-12-01T03:50:28.433Z,1003.64
2022-12-01T03:51:32.563Z,1003.64
2022-12-01T03:52:35.089Z,1003.59
2022-12-01T03:53:37.682Z,1003.66
2022-12-01T03:54:40.353Z,1003.59
2022-12-01T03:55:42.973Z,1003.65
2022-12-01T03:56:45.633Z,1003.63
2022-12-01T03:57:48.245Z,1003.58
2022-12-01T03:58:50.876Z,1003.59
2022-12-01T03:59:53.514Z,1003.6
2022-12-01T04:00:56.186Z,1003.65
2022-12-01T04:01:59.176Z,1003.73
2022-12-01T04:03:02.622Z,1003.61
2022-12-01T04:04:05.304Z,1003.65
2022-12-01T04:05:07.891Z,1003.65
2022-12-01T04:06:10.583Z,1003.68
2022-12-01T04:07:13.163Z,1003.72
2022-12-01T04:08:15.902Z,1003.67
2022-12-01T04:09:18.522Z,1003.7
2022-12-01T04:10:21.202Z,1003.71
2022-12-01T04:11:33.209Z,1003.75
2022-12-01T04:12:35.345Z,1003.71
2022-12-01T04:13:37.990Z,1003.74
2022-12-01T04:14:40.685Z,1003.7
2022-12-01T04:15:43.488Z,1003.68
2022-12-01T04:16:46.081Z,1003.72
2022-12-01T04:17:48.736Z,1003.72
2022-12-01T04:18:51.415Z,1003.74
2022-12-01T04:19:54.050Z,1003.69
2022-12-01T04:20:56.697Z,1003.69
2022-12-01T04:21:59.355Z,1003.69
2022-12-01T04:23:02.031Z,1003.74
2022-12-01T04:24:04.691Z,1003.72
2022-12-01T04:25:07.925Z,1003.77
2022-12-01T04:26:16.254Z,1003.76
2022-12-01T04:27:18.558Z,1003.79
2022-12-01T04:28:21.154Z,1003.77
2022-12-01T04:29:23.802Z,1003.77
2022-12-01T04:30:26.439Z,1003.72
2022-12-01T04:31:29.603Z,1003.74
2022-12-01T04:32:32.190Z,1003.76
2022-12-01T04:33:34.818Z,1003.78
2022-12-01T04:34:37.431Z,1003.8
2022-12-01T04:35:40.006Z,1003.77
2022-12-01T04:36:42.613Z,1003.77
2022-12-01T04:37:45.291Z,1003.82
2022-12-01T04:38:47.986Z,1003.79
2022-12-01T04:39:52.109Z,1003.85
2022-12-01T04:40:54.714Z,1003.82
2022-12-01T04:41:57.316Z,1003.9
2022-12-01T04:42:59.872Z,1003.88
2022-12-01T04:44:02.513Z,1003.86
2022-12-01T04:45:05.161Z,1003.87
2022-12-01T04:46:08.042Z,1003.84
2022-12-01T04:47:10.668Z,1003.87
2022-12-01T04:48:13.276Z,1003.85
2022-12-01T04:49:15.954Z,1003.9
2022-12-01T04:50:18.641Z,1003.87
2022-12-01T04:51:21.242Z,1003.86
2022-12-01T04:52:23.851Z,1003.83
2022-12-01T04:53:26.449Z,1003.84
2022-12-01T04:54:29.110Z,1003.87
2022-12-01T04:55:31.798Z,1003.95
2022-12-01T04:56:34.473Z,1003.9
2022-12-01T04:57:37.106Z,1003.89
2022-12-01T04:58:39.728Z,1003.89
2022-12-01T04:59:42.335Z,1003.92
2022-12-01T05:00:45.305Z,1003.89
2022-12-01T05:01:48.778Z,1003.91
2022-12-01T05:02:51.407Z,1003.91
2022-12-01T05:04:05.015Z,1003.88
2022-12-01T05:05:07.214Z,1003.92
2022-12-01T05:06:09.785Z,1003.9
2022-12-01T05:07:12.639Z,1003.93
2022-12-01T05:08:15.254Z,1003.95
2022-12-01T05:09:18.384Z,1003.91
2022-12-01T05:10:21.019Z,1003.93
2022-12-01T05:11:23.707Z,1003.91
2022-12-01T05:12:26.353Z,1003.89
2022-12-01T05:13:39.000Z,1003.9
2022-12-01T05:14:41.260Z,1003.89
2022-12-01T05:15:43.827Z,1003.91
2022-12-01T05:16:46.693Z,1003.88
2022-12-01T05:17:49.288Z,1003.93
2022-12-01T05:18:52.109Z,1003.94
2022-12-01T05:19:54.759Z,1003.93
2022-12-01T05:20:57.423Z,1003.92
2022-12-01T05:22:00.075Z,1003.9
2022-12-01T05:23:16.677Z,1003.9
2022-12-01T05:24:18.859Z,1003.98
2022-12-01T05:25:21.607Z,1003.94
2022-12-01T05:26:24.297Z,1003.98
2022-12-01T05:27:26.941Z,1003.99
2022-12-01T05:28:29.568Z,1003.89
2022-12-01T05:29:32.198Z,1003.94
2022-12-01T05:30:35.287Z,1003.93
2022-12-01T05:31:38.635Z,1004.02
2022-12-01T05:32:41.426Z,1004.01
2022-12-01T05:33:44.066Z,1004.02
2022-12-01T05:34:46.704Z,1004.04
2022-12-01T05:35:49.353Z,1004.03
2022-12-01T05:36:51.989Z,1003.97
2022-12-01T05:37:55.047Z,1003.99
2022-12-01T05:38:57.662Z,1003.99
2022-12-01T05:40:00.359Z,1003.97
2022-12-01T05:41:02.971Z,1003.97
2022-12-01T05:42:05.580Z,1004.02
2022-12-01T05:43:09.361Z,1003.98
2022-12-01T05:44:13.228Z,1003.98
2022-12-01T05:45:27.719Z,1004
2022-12-01T05:46:30.274Z,1003.93
2022-12-01T05:47:34.267Z,1003.98
2022-12-01T05:48:41.893Z,1003.96
2022-12-01T05:49:44.620Z,1003.99
2022-12-01T05:50:52.705Z,1004.04
2022-12-01T05:51:55.066Z,1003.97
2022-12-01T05:53:01.882Z,1004.03
2022-12-01T05:54:05.691Z,1004.03
2022-12-01T05:55:13.601Z,1004
2022-12-01T05:56:20.379Z,1004
2022-12-01T05:57:26.149Z,1004.05
2022-12-01T05:58:28.754Z,1003.95
2022-12-01T05:59:35.912Z,1004.02
2022-12-01T06:00:46.639Z,1004.07
2022-12-01T06:01:49.212Z,1004.05
2022-12-01T06:02:52.263Z,1004.06
2022-12-01T06:04:00.583Z,1004.08
2022-12-01T06:05:08.505Z,1004.05
2022-12-01T06:06:10.731Z,1004.08
2022-12-01T06:07:18.807Z,1004.09
2022-12-01T06:08:22.634Z,1004.06
2022-12-01T06:09:33.623Z,1004.09
2022-12-01T06:10:41.286Z,1004.15
2022-12-01T06:11:52.871Z,1004.12
2022-12-01T06:12:55.533Z,1004.1
2022-12-01T06:14:03.613Z,1004.13
2022-12-01T06:15:07.318Z,1004.14
2022-12-01T06:16:11.207Z,1004.11
2022-12-01T06:17:19.166Z,1004.14
2022-12-01T06:18:21.411Z,1004.12
2022-12-01T06:19:28.528Z,1004.17
2022-12-01T06:20:36.326Z,1004.17
2022-12-01T06:21:44.114Z,1004.12
2022-12-01T06:22:50.843Z,1004.12
2022-12-01T06:23:58.640Z,1004.18
2022-12-01T06:25:10.343Z,1004.15
2022-12-01T06:26:16.996Z,1004.13
2022-12-01T06:27:24.670Z,1004.23
2022-12-01T06:28:28.385Z,1004.19
2022-12-01T06:29:47.396Z,1004.24
2022-12-01T06:31:04.078Z,1004.22
2022-12-01T06:32:07.804Z,1004.23
2022-12-01T06:33:14.662Z,1004.26
2022-12-01T06:34:22.452Z,1004.3
2022-12-01T06:35:28.298Z,1004.27
2022-12-01T06:36:30.613Z,1004.24
2022-12-01T06:37:34.755Z,1004.24
2022-12-01T06:38:38.640Z,1004.25
2022-12-01T06:39:45.571Z,1004.27
2022-12-01T06:40:49.402Z,1004.25
2022-12-01T06:41:57.111Z,1004.24
2022-12-01T06:43:04.014Z,1004.28
2022-12-01T06:44:08.691Z,1004.27
2022-12-01T06:45:16.427Z,1004.25
2022-12-01T06:46:19.980Z,1004.32
2022-12-01T06:47:27.934Z,1004.37
2022-12-01T06:48:35.698Z,1004.33
2022-12-01T06:49:38.588Z,1004.34
2022-12-01T06:50:46.373Z,1004.44
2022-12-01T06:51:55.074Z,1004.41
2022-12-01T06:52:59.662Z,1004.46
2022-12-01T06:54:07.522Z,1004.48
2022-12-01T06:55:11.724Z,1004.46
2022-12-01T06:56:15.020Z,1004.47
2022-12-01T06:57:18.836Z,1004.45
2022-12-01T06:58:28.071Z,1004.51
2022-12-01T06:59:32.660Z,1004.49
2022-12-01T07:00:52.670Z,1004.56
2022-12-01T07:01:56.643Z,1004.56
2022-12-01T07:03:03.592Z,1004.64
2022-12-01T07:04:07.294Z,1004.6
2022-12-01T07:05:15.120Z,1004.6
2022-12-01T07:06:21.818Z,1004.58
2022-12-01T07:07:24.301Z,1004.57
2022-12-01T07:08:32.420Z,1004.59
2022-12-01T07:09:35.179Z,1004.54
2022-12-01T07:10:43.198Z,1004.56
2022-12-01T07:11:47.025Z,1004.62
2022-12-01T07:12:49.877Z,1004.62
2022-12-01T07:13:57.897Z,1004.61
2022-12-01T07:15:01.547Z,1004.63
2022-12-01T07:16:08.734Z,1004.63
2022-12-01T07:17:16.515Z,1004.61
2022-12-01T07:18:20.348Z,1004.66
2022-12-01T07:19:27.085Z,1004.64
2022-12-01T07:20:34.876Z,1004.71
2022-12-01T07:21:42.666Z,1004.63
2022-12-01T07:22:45.589Z,1004.69
2022-12-01T07:23:53.557Z,1004.64
2022-12-01T07:25:01.339Z,1004.69
2022-12-01T07:26:08.104Z,1004.65
2022-12-01T07:27:15.846Z,1004.62
2022-12-01T07:28:23.609Z,1004.71
2022-12-01T07:29:30.401Z,1004.71
2022-12-01T07:30:38.506Z,1004.72
2022-12-01T07:31:46.325Z,1004.66
2022-12-01T07:32:53.076Z,1004.76
2022-12-01T07:34:00.902Z,1004.71
2022-12-01T07:35:04.674Z,1004.72
2022-12-01T07:36:11.622Z,1004.8
2022-12-01T07:37:19.409Z,1004.74
2022-12-01T07:38:27.233Z,1004.81
2022-12-01T07:39:33.985Z,1004.8
2022-12-01T07:40:41.751Z,1004.84
2022-12-01T07:41:45.472Z,1004.79
2022-12-01T07:42:52.446Z,1004.85
2022-12-01T07:44:00.388Z,1004.86
2022-12-01T07:45:08.241Z,1004.85
2022-12-01T07:46:24.690Z,1004.86
2022-12-01T07:47:28.306Z,1004.83
2022-12-01T07:48:36.124Z,1004.87
2022-12-01T07:49:42.890Z,1004.89
2022-12-01T07:50:50.628Z,1004.9
2022-12-01T07:51:58.324Z,1004.93
2022-12-01T07:53:05.134Z,1004.89
2022-12-01T07:54:12.934Z,1004.9
2022-12-01T07:55:20.611Z,1004.94
2022-12-01T07:56:27.604Z,1004.94
2022-12-01T07:57:31.434Z,1004.97
2022-12-01T07:58:39.499Z,1004.96
2022-12-01T07:59:47.415Z,1005
2022-12-01T08:00:55.333Z,1005.02
2022-12-01T08:02:03.283Z,1005.03
2022-12-01T08:03:06.368Z,1005.04
2022-12-01T08:04:08.914Z,1005.07
2022-12-01T08:05:16.947Z,1005.08
2022-12-01T08:06:19.500Z,1005.08
2022-12-01T08:07:30.568Z,1005.09
2022-12-01T08:08:32.765Z,1005.08
2022-12-01T08:09:35.822Z,1005.1
2022-12-01T08:10:39.806Z,1005.02
2022-12-01T09:59:14.931Z,1005.33
2022-12-01T10:00:22.474Z,1005.32
2022-12-01T10:01:30.285Z,1005.3
2022-12-01T10:02:33.353Z,1005.24
2022-12-01T10:03:42.261Z,1005.23
2022-12-01T10:04:47.160Z,1005.26
2022-12-01T10:07:17.186Z,1005.18
2022-12-01T10:08:27.491Z,1005.25
2022-12-01T10:09:33.790Z,1005.14
2022-12-01T10:10:39.091Z,1005.19
2022-12-01T10:11:45.898Z,1005.15
2022-12-01T10:12:53.671Z,1005.15
2022-12-01T10:13:57.391Z,1005.15
2022-12-01T10:15:04.467Z,1005.13
2022-12-01T10:16:14.118Z,1005.09
2022-12-01T10:17:16.348Z,1005.09
2022-12-01T10:18:20.268Z,1005.1
2022-12-01T10:19:29.217Z,1005.06
2022-12-01T10:20:32.947Z,1005.08
2022-12-01T10:21:41.878Z,1005.05
2022-12-01T10:22:45.669Z,1005.05
2022-12-01T10:23:49.533Z,1005.06
2022-12-01T10:24:52.432Z,1005.06
2022-12-01T10:25:56.433Z,1005
2022-12-01T10:27:06.570Z,1005.02
2022-12-01T10:28:13.329Z,1005.05
2022-12-01T10:29:21.040Z,1005.03
2022-12-01T10:30:24.964Z,1005.02
2022-12-01T10:31:28.244Z,1005.06
2022-12-01T10:32:38.495Z,1004.97
2022-12-01T10:33:42.195Z,1005.03
2022-12-01T10:34:45.117Z,1004.96
2022-12-01T10:35:49.156Z,1004.98
2022-12-01T10:36:56.985Z,1004.95
2022-12-01T10:38:02.525Z,1004.99
2022-12-01T10:39:10.386Z,1004.9
2022-12-01T10:40:14.178Z,1004.92
2022-12-01T10:41:21.103Z,1004.91
2022-12-01T10:42:23.358Z,1004.99
2022-12-01T10:43:34.025Z,1004.88
2022-12-01T10:44:36.217Z,1004.97
2022-12-01T10:45:40.729Z,1004.95
2022-12-01T10:46:43.787Z,1004.92
2022-12-01T10:47:46.885Z,1004.93
2022-12-01T10:48:57.668Z,1004.92
2022-12-01T10:50:05.381Z,1005.01
2022-12-01T10:51:09.120Z,1004.96
2022-12-01T10:52:17.034Z,1004.98
2022-12-01T10:53:19.311Z,1005.01
2022-12-01T10:54:29.194Z,1004.92
2022-12-01T10:55:48.621Z,1004.87
2022-12-01T10:56:51.865Z,1004.94
2022-12-01T10:57:58.760Z,1004.84
2022-12-01T10:59:08.466Z,1004.9
2022-12-01T11:00:58.375Z,1004.88
2022-12-01T11:01:38.690Z,1004.87
2022-12-01T11:02:42.859Z,1004.82
2022-12-01T11:03:45.470Z,1004.79
2022-12-01T11:04:48.669Z,1004.78
2022-12-01T11:05:51.501Z,1004.75
2022-12-01T11:06:59.624Z,1004.72
2022-12-01T11:08:02.962Z,1004.76
2022-12-01T11:09:10.955Z,1004.7
2022-12-01T11:10:14.695Z,1004.72
2022-12-01T11:11:21.608Z,1004.68
2022-12-01T11:12:29.370Z,1004.67
2022-12-01T11:13:33.214Z,1004.66
2022-12-01T11:14:40.096Z,1004.67
2022-12-01T11:15:47.912Z,1004.68
2022-12-01T11:16:52.267Z,1004.63
2022-12-01T11:17:54.661Z,1004.63
2022-12-01T11:18:59.187Z,1004.64
2022-12-01T11:20:07.257Z,1004.63
2022-12-01T11:21:22.139Z,1004.54
2022-12-01T11:22:30.022Z,1004.59
2022-12-01T11:23:32.228Z,1004.54
2022-12-01T11:24:34.874Z,1004.53
2022-12-01T11:25:42.880Z,1004.55
2022-12-01T11:26:46.366Z,1004.53
2022-12-01T11:27:48.938Z,1004.54
2022-12-01T11:28:51.604Z,1004.5
2022-12-01T11:29:59.622Z,1004.54
2022-12-01T11:31:02.459Z,1004.53
2022-12-01T11:32:10.949Z,1004.48
2022-12-01T11:33:15.489Z,1004.48
2022-12-01T11:34:22.355Z,1004.47
2022-12-01T11:35:30.096Z,1004.51
2022-12-01T11:36:32.362Z,1004.43
2022-12-01T11:37:34.931Z,1004.48
2022-12-01T11:38:43.066Z,1004.49
2022-12-01T11:39:49.549Z,1004.48
2022-12-01T11:40:52.604Z,1004.48
2022-12-01T11:41:56.611Z,1004.4
2022-12-01T11:43:12.569Z,1004.47
2022-12-01T11:45:00.182Z,1004.47
2022-12-01T11:45:39.182Z,1004.4
2022-12-01T11:47:21.384Z,1004.38
2022-12-01T11:48:03.992Z,1004.41
2022-12-01T11:49:11.889Z,1004.44
2022-12-01T11:50:19.773Z,1004.41
2022-12-01T11:51:31.536Z,1004.35
2022-12-01T11:52:39.190Z,1004.41
2022-12-01T11:53:42.910Z,1004.43
2022-12-01T11:54:49.811Z,1004.43
2022-12-01T11:55:57.584Z,1004.46
2022-12-01T11:57:33.489Z,1004.43
2022-12-01T11:58:23.979Z,1004.39
2022-12-01T11:59:31.910Z,1004.34
2022-12-01T12:00:35.720Z,1004.33
2022-12-01T12:01:42.566Z,1004.4
2022-12-01T12:02:50.586Z,1004.32
2022-12-01T12:03:58.475Z,1004.35
2022-12-01T12:05:05.294Z,1004.37
2022-12-01T12:06:43.199Z,1004.37
2022-12-01T12:07:36.595Z,1004.35
2022-12-01T12:08:44.735Z,1004.37
2022-12-01T12:09:49.766Z,1004.37
2022-12-01T12:10:57.029Z,1004.37
2022-12-01T12:12:04.956Z,1004.36
2022-12-01T12:13:08.752Z,1004.38
2022-12-01T12:14:16.211Z,1004.35
2022-12-01T12:15:20.111Z,1004.4
2022-12-01T12:16:33.925Z,1004.4
2022-12-01T12:17:36.974Z,1004.41
2022-12-01T12:18:40.999Z,1004.36
2022-12-01T12:20:08.383Z,1004.38
2022-12-01T12:21:11.236Z,1004.42
2022-12-01T12:22:19.113Z,1004.43
2022-12-01T12:23:22.967Z,1004.4
2022-12-01T12:24:29.823Z,1004.39
2022-12-01T12:25:37.617Z,1004.35
2022-12-01T12:26:41.338Z,1004.41
2022-12-01T12:27:48.260Z,1004.38
2022-12-01T12:28:50.599Z,1004.38
2022-12-01T12:29:54.676Z,1004.38
2022-12-01T12:31:02.023Z,1004.36
2022-12-01T12:32:09.950Z,1004.41
2022-12-01T12:33:13.704Z,1004.39
2022-12-01T12:34:20.603Z,1004.4
2022-12-01T12:35:28.490Z,1004.43
2022-12-01T12:36:36.355Z,1004.41
2022-12-01T12:37:39.132Z,1004.45
2022-12-01T12:38:47.070Z,1004.4
2022-12-01T12:39:52.534Z,1004.43
2022-12-01T12:40:59.477Z,1004.46
2022-12-01T12:42:03.224Z,1004.45
2022-12-01T12:43:05.637Z,1004.45
2022-12-01T12:44:12.757Z,1004.45
2022-12-01T12:45:20.566Z,1004.45
2022-12-01T12:46:24.544Z,1004.46
2022-12-01T12:47:31.497Z,1004.46
2022-12-01T12:49:18.421Z,1004.42
2022-12-01T12:50:02.508Z,1004.46
2022-12-01T12:51:10.547Z,1004.45
2022-12-01T12:52:14.278Z,1004.41
2022-12-01T12:53:21.236Z,1004.39
2022-12-01T12:54:25.277Z,1004.4
2022-12-01T12:55:33.250Z,1004.39
2022-12-01T12:56:35.440Z,1004.44
2022-12-01T12:57:43.607Z,1004.4
2022-12-01T12:58:47.414Z,1004.37
2022-12-01T12:59:54.335Z,1004.38
2022-12-01T13:01:03.101Z,1004.38
2022-12-01T13:02:06.936Z,1004.41
2022-12-01T13:03:13.904Z,1004.34
2022-12-01T13:04:21.722Z,1004.4
2022-12-01T13:05:23.933Z,1004.36
2022-12-01T13:06:31.212Z,1004.32
2022-12-01T13:07:39.279Z,1004.33
2022-12-01T13:08:44.488Z,1004.34
2022-12-01T13:09:52.671Z,1004.35
2022-12-01T13:11:00.439Z,1004.3
2022-12-01T13:12:04.803Z,1004.31
2022-12-01T13:13:11.718Z,1004.28
2022-12-01T13:14:19.525Z,1004.3
2022-12-01T13:15:23.263Z,1004.29
2022-12-01T13:16:30.256Z,1004.3
2022-12-01T13:17:37.926Z,1004.3
2022-12-01T13:18:45.679Z,1004.34
2022-12-01T13:19:50.318Z,1004.29
2022-12-01T13:20:58.395Z,1004.33
2022-12-01T13:22:06.617Z,1004.32
2022-12-01T13:23:09.447Z,1004.33
2022-12-01T13:24:23.891Z,1004.29
2022-12-01T13:25:27.488Z,1004.32
2022-12-01T13:26:34.397Z,1004.32
2022-12-01T13:27:42.253Z,1004.26
2022-12-01T13:28:44.451Z,1004.22
2022-12-01T13:29:52.762Z,1004.21
2022-12-01T13:31:01.033Z,1004.26
2022-12-01T13:32:08.792Z,1004.26
2022-12-01T13:33:11.452Z,1004.26
2022-12-01T13:34:15.416Z,1004.22
2022-12-01T13:35:23.343Z,1004.25
2022-12-01T13:36:48.065Z,1004.27
2022-12-01T13:37:51.570Z,1004.18
2022-12-01T13:38:59.456Z,1004.23
2022-12-01T13:40:06.187Z,1004.24
2022-12-01T13:41:13.994Z,1004.24
2022-12-01T13:42:16.167Z,1004.22
2022-12-01T13:43:23.300Z,1004.23
2022-12-01T13:44:31.275Z,1004.22
2022-12-01T13:45:39.040Z,1004.16
2022-12-01T13:46:42.248Z,1004.19
2022-12-01T13:47:50.267Z,1004.18
2022-12-01T13:48:53.454Z,1004.23
2022-12-01T13:49:56.532Z,1004.16
2022-12-01T13:51:04.593Z,1004.16
2022-12-01T13:52:08.409Z,1004.13
2022-12-01T13:53:15.458Z,1004.11
2022-12-01T13:54:23.241Z,1004.14
2022-12-01T13:55:26.063Z,1004.09
2022-12-01T13:56:41.323Z,1004.06
2022-12-01T13:57:44.938Z,1004.11
2022-12-01T13:59:50.576Z,1004.14
2022-12-01T14:00:58.920Z,1004.1
2022-12-01T14:02:01.469Z,1004.1
2022-12-01T14:03:08.793Z,1004.06
2022-12-01T14:04:16.551Z,1004.03
2022-12-01T14:05:21.274Z,1004.04
2022-12-01T14:06:28.248Z,1004.08
2022-12-01T14:07:36.309Z,1004.08
2022-12-01T14:08:38.941Z,1004.08
2022-12-01T14:09:41.515Z,1004.09
2022-12-01T14:10:45.615Z,1004.1
2022-12-01T14:11:58.150Z,1004.14
2022-12-01T14:13:04.880Z,1004.15
2022-12-01T14:14:08.679Z,1004.13
2022-12-01T14:15:16.604Z,1004.09
2022-12-01T14:16:19.660Z,1004.11
2022-12-01T14:17:27.646Z,1004.14
2022-12-01T14:18:31.417Z,1004.14
2022-12-01T14:19:38.264Z,1004.13
2022-12-01T14:20:46.086Z,1004.17
2022-12-01T14:21:49.959Z,1004.09
2022-12-01T14:22:53.880Z,1004.07
2022-12-01T14:23:57.350Z,1004.07
2022-12-01T14:25:01.408Z,1004.14
2022-12-01T14:26:08.365Z,1004.12
2022-12-01T14:27:19.200Z,1004.16
2022-12-01T14:28:26.890Z,1004.1
2022-12-01T14:29:33.673Z,1004.13
2022-12-01T14:30:41.461Z,1004.11
2022-12-01T14:31:45.444Z,1004.09
2022-12-01T14:32:49.579Z,1004.1
2022-12-01T14:33:57.801Z,1004.13
2022-12-01T14:35:00.074Z,1004.12
2022-12-01T14:36:02.611Z,1004.06
2022-12-01T14:37:06.768Z,1004.09
2022-12-01T14:38:10.133Z,1004.09
2022-12-01T14:39:13.394Z,1004.13
2022-12-01T14:40:22.503Z,1004.13
2022-12-01T14:41:24.711Z,1004.12
2022-12-01T14:42:27.291Z,1004.12
2022-12-01T14:43:31.413Z,1004.12
2022-12-01T14:44:39.634Z,1004.13
2022-12-01T14:45:42.485Z,1004.11
2022-12-01T14:46:50.631Z,1004.07
2022-12-01T14:47:52.907Z,1004.1
2022-12-01T14:48:55.464Z,1004.09
2022-12-01T14:50:03.463Z,1004.16
2022-12-01T14:51:07.304Z,1004.12
2022-12-01T14:52:14.245Z,1004.09
2022-12-01T14:53:22.042Z,1004.12
2022-12-01T14:54:25.855Z,1004.09
2022-12-01T14:55:33.046Z,1004.07
2022-12-01T14:56:40.680Z,1004.01
2022-12-01T14:57:44.493Z,1004.11